sensor_id;sensor_type;location;lat;lon;timestamp;P1;durP1;ratioP1;P2;durP2;ratioP2
62990;SDS011;49084;48.204;16.202;2023-06-22T00:01:27;9.52;;;5.18;;
62990;SDS011;49084;48.204;16.202;2023-06-22T00:03:53;12.65;;;4.85;;
62990;SDS011;49084;48.204;16.202;2023-06-22T00:06:19;8.82;;;5.03;;
62990;SDS011;49084;48.204;16.202;2023-06-22T00:08:44;12.60;;;4.72;;
62990;SDS011;49084;48.204;16.202;2023-06-22T00:11:10;16.75;;;6.32;;
62990;SDS011;49084;48.204;16.202;2023-06-22T00:13:36;9.05;;;5.05;;
62990;SDS011;49084;48.204;16.202;2023-06-22T00:16:02;10.05;;;5.50;;
62990;SDS011;49084;48.204;16.202;2023-06-22T00:18:28;12.13;;;4.95;;
62990;SDS011;49084;48.204;16.202;2023-06-22T00:20:55;11.07;;;5.43;;
62990;SDS011;49084;48.204;16.202;2023-06-22T00:23:24;12.98;;;6.18;;
62990;SDS011;49084;48.204;16.202;2023-06-22T00:25:50;9.70;;;4.28;;
62990;SDS011;49084;48.204;16.202;2023-06-22T00:28:16;11.13;;;5.30;;
62990;SDS011;49084;48.204;16.202;2023-06-22T00:30:42;9.10;;;5.05;;
62990;SDS011;49084;48.204;16.202;2023-06-22T00:33:07;16.30;;;6.15;;
62990;SDS011;49084;48.204;16.202;2023-06-22T00:35:33;7.85;;;5.57;;
62990;SDS011;49084;48.204;16.202;2023-06-22T00:37:59;11.27;;;4.97;;
62990;SDS011;49084;48.204;16.202;2023-06-22T00:40:29;8.48;;;5.18;;
62990;SDS011;49084;48.204;16.202;2023-06-22T00:42:56;9.45;;;5.07;;
62990;SDS011;49084;48.204;16.202;2023-06-22T00:45:23;10.73;;;5.85;;
62990;SDS011;49084;48.204;16.202;2023-06-22T00:47:52;8.88;;;5.55;;
62990;SDS011;49084;48.204;16.202;2023-06-22T00:50:20;13.48;;;5.88;;
62990;SDS011;49084;48.204;16.202;2023-06-22T00:52:56;15.07;;;5.82;;
62990;SDS011;49084;48.204;16.202;2023-06-22T00:55:23;11.20;;;5.70;;
62990;SDS011;49084;48.204;16.202;2023-06-22T00:57:50;13.35;;;6.00;;
62990;SDS011;49084;48.204;16.202;2023-06-22T01:00:20;16.33;;;5.55;;
62990;SDS011;49084;48.204;16.202;2023-06-22T01:02:49;8.85;;;5.53;;
62990;SDS011;49084;48.204;16.202;2023-06-22T01:05:17;13.18;;;5.85;;
62990;SDS011;49084;48.204;16.202;2023-06-22T01:12:45;11.25;;;5.32;;
62990;SDS011;49084;48.204;16.202;2023-06-22T01:15:33;11.70;;;5.80;;
62990;SDS011;49084;48.204;16.202;2023-06-22T01:18:27;9.45;;;5.10;;
62990;SDS011;49084;48.204;16.202;2023-06-22T01:20:55;11.43;;;5.43;;
62990;SDS011;49084;48.204;16.202;2023-06-22T01:23:29;11.40;;;5.30;;
62990;SDS011;49084;48.204;16.202;2023-06-22T01:26:20;14.02;;;4.70;;
62990;SDS011;49084;48.204;16.202;2023-06-22T01:28:55;11.05;;;5.30;;
62990;SDS011;49084;48.204;16.202;2023-06-22T01:31:24;10.20;;;5.07;;
62990;SDS011;49084;48.204;16.202;2023-06-22T01:33:57;9.57;;;5.25;;
62990;SDS011;49084;48.204;16.202;2023-06-22T01:36:25;8.13;;;4.85;;
62990;SDS011;49084;48.204;16.202;2023-06-22T01:38:52;11.95;;;5.28;;
62990;SDS011;49084;48.204;16.202;2023-06-22T01:41:19;9.73;;;5.20;;
62990;SDS011;49084;48.204;16.202;2023-06-22T01:43:46;8.98;;;5.28;;
62990;SDS011;49084;48.204;16.202;2023-06-22T01:46:13;13.38;;;5.53;;
62990;SDS011;49084;48.204;16.202;2023-06-22T01:48:39;15.45;;;6.13;;
62990;SDS011;49084;48.204;16.202;2023-06-22T01:51:05;10.05;;;5.50;;
62990;SDS011;49084;48.204;16.202;2023-06-22T01:53:31;11.75;;;5.57;;
62990;SDS011;49084;48.204;16.202;2023-06-22T01:55:57;13.48;;;5.65;;
62990;SDS011;49084;48.204;16.202;2023-06-22T01:58:23;7.05;;;5.05;;
62990;SDS011;49084;48.204;16.202;2023-06-22T02:01:13;13.70;;;5.45;;
62990;SDS011;49084;48.204;16.202;2023-06-22T02:03:47;11.48;;;5.45;;
62990;SDS011;49084;48.204;16.202;2023-06-22T02:06:23;11.90;;;5.60;;
62990;SDS011;49084;48.204;16.202;2023-06-22T02:08:55;11.23;;;5.13;;
62990;SDS011;49084;48.204;16.202;2023-06-22T02:11:24;14.57;;;5.38;;
62990;SDS011;49084;48.204;16.202;2023-06-22T02:13:53;13.02;;;6.40;;
62990;SDS011;49084;48.204;16.202;2023-06-22T02:16:20;8.82;;;5.60;;
62990;SDS011;49084;48.204;16.202;2023-06-22T02:18:49;10.82;;;5.82;;
62990;SDS011;49084;48.204;16.202;2023-06-22T02:21:19;11.70;;;6.38;;
62990;SDS011;49084;48.204;16.202;2023-06-22T02:23:46;15.00;;;5.78;;
62990;SDS011;49084;48.204;16.202;2023-06-22T02:26:12;6.88;;;5.63;;
62990;SDS011;49084;48.204;16.202;2023-06-22T02:28:38;11.85;;;6.15;;
62990;SDS011;49084;48.204;16.202;2023-06-22T02:31:04;9.05;;;6.32;;
62990;SDS011;49084;48.204;16.202;2023-06-22T02:33:29;14.75;;;6.20;;
62990;SDS011;49084;48.204;16.202;2023-06-22T02:35:55;9.98;;;6.05;;
62990;SDS011;49084;48.204;16.202;2023-06-22T02:38:21;12.25;;;5.80;;
62990;SDS011;49084;48.204;16.202;2023-06-22T02:40:49;11.55;;;5.93;;
62990;SDS011;49084;48.204;16.202;2023-06-22T02:43:15;12.25;;;6.43;;
62990;SDS011;49084;48.204;16.202;2023-06-22T02:45:41;9.50;;;5.55;;
62990;SDS011;49084;48.204;16.202;2023-06-22T02:48:06;12.32;;;6.07;;
62990;SDS011;49084;48.204;16.202;2023-06-22T02:50:32;15.02;;;6.32;;
62990;SDS011;49084;48.204;16.202;2023-06-22T02:52:58;14.77;;;6.40;;
62990;SDS011;49084;48.204;16.202;2023-06-22T02:55:23;10.55;;;5.97;;
62990;SDS011;49084;48.204;16.202;2023-06-22T02:57:49;11.88;;;6.53;;
62990;SDS011;49084;48.204;16.202;2023-06-22T03:00:18;8.05;;;4.85;;
62990;SDS011;49084;48.204;16.202;2023-06-22T03:02:47;13.38;;;6.30;;
62990;SDS011;49084;48.204;16.202;2023-06-22T03:05:14;14.98;;;6.05;;
62990;SDS011;49084;48.204;16.202;2023-06-22T03:10:09;11.82;;;6.60;;
62990;SDS011;49084;48.204;16.202;2023-06-22T03:12:39;10.73;;;6.28;;
62990;SDS011;49084;48.204;16.202;2023-06-22T03:15:06;15.30;;;6.15;;
62990;SDS011;49084;48.204;16.202;2023-06-22T03:17:33;12.70;;;5.50;;
62990;SDS011;49084;48.204;16.202;2023-06-22T03:20:00;8.48;;;5.88;;
62990;SDS011;49084;48.204;16.202;2023-06-22T03:22:26;12.60;;;6.90;;
62990;SDS011;49084;48.204;16.202;2023-06-22T03:24:51;11.65;;;6.20;;
62990;SDS011;49084;48.204;16.202;2023-06-22T03:27:17;10.90;;;6.32;;
62990;SDS011;49084;48.204;16.202;2023-06-22T03:29:43;10.82;;;6.53;;
62990;SDS011;49084;48.204;16.202;2023-06-22T03:32:09;9.80;;;5.60;;
62990;SDS011;49084;48.204;16.202;2023-06-22T03:34:35;11.35;;;6.30;;
62990;SDS011;49084;48.204;16.202;2023-06-22T03:37:01;12.63;;;6.30;;
62990;SDS011;49084;48.204;16.202;2023-06-22T03:39:26;8.88;;;6.40;;
62990;SDS011;49084;48.204;16.202;2023-06-22T03:41:52;9.07;;;6.50;;
62990;SDS011;49084;48.204;16.202;2023-06-22T03:44:18;9.98;;;5.93;;
62990;SDS011;49084;48.204;16.202;2023-06-22T03:46:43;10.25;;;6.10;;
62990;SDS011;49084;48.204;16.202;2023-06-22T03:49:09;11.65;;;6.55;;
62990;SDS011;49084;48.204;16.202;2023-06-22T03:51:35;10.57;;;7.00;;
62990;SDS011;49084;48.204;16.202;2023-06-22T03:54:00;8.43;;;5.40;;
62990;SDS011;49084;48.204;16.202;2023-06-22T03:56:26;10.13;;;5.90;;
62990;SDS011;49084;48.204;16.202;2023-06-22T03:58:51;8.93;;;5.30;;
62990;SDS011;49084;48.204;16.202;2023-06-22T04:01:17;8.70;;;5.22;;
62990;SDS011;49084;48.204;16.202;2023-06-22T04:03:43;9.63;;;5.55;;
62990;SDS011;49084;48.204;16.202;2023-06-22T04:06:09;11.02;;;7.07;;
62990;SDS011;49084;48.204;16.202;2023-06-22T04:08:34;7.55;;;5.60;;
62990;SDS011;49084;48.204;16.202;2023-06-22T04:11:00;7.65;;;5.70;;
62990;SDS011;49084;48.204;16.202;2023-06-22T04:13:25;8.73;;;5.70;;
62990;SDS011;49084;48.204;16.202;2023-06-22T04:15:51;8.05;;;5.38;;
62990;SDS011;49084;48.204;16.202;2023-06-22T04:18:17;12.90;;;6.50;;
62990;SDS011;49084;48.204;16.202;2023-06-22T04:20:42;12.40;;;5.35;;
62990;SDS011;49084;48.204;16.202;2023-06-22T04:25:37;11.70;;;5.50;;
62990;SDS011;49084;48.204;16.202;2023-06-22T04:28:04;13.18;;;5.95;;
62990;SDS011;49084;48.204;16.202;2023-06-22T04:30:29;10.98;;;6.18;;
62990;SDS011;49084;48.204;16.202;2023-06-22T04:32:58;8.63;;;5.35;;
62990;SDS011;49084;48.204;16.202;2023-06-22T04:35:24;7.22;;;5.18;;
62990;SDS011;49084;48.204;16.202;2023-06-22T04:37:50;10.32;;;5.38;;
62990;SDS011;49084;48.204;16.202;2023-06-22T04:40:19;7.50;;;4.68;;
62990;SDS011;49084;48.204;16.202;2023-06-22T04:42:47;10.80;;;5.10;;
62990;SDS011;49084;48.204;16.202;2023-06-22T04:45:17;9.18;;;4.97;;
62990;SDS011;49084;48.204;16.202;2023-06-22T04:47:43;12.43;;;5.43;;
62990;SDS011;49084;48.204;16.202;2023-06-22T04:50:13;9.05;;;4.95;;
62990;SDS011;49084;48.204;16.202;2023-06-22T04:52:39;7.93;;;4.90;;
62990;SDS011;49084;48.204;16.202;2023-06-22T04:55:05;6.65;;;4.80;;
62990;SDS011;49084;48.204;16.202;2023-06-22T04:57:31;12.38;;;5.47;;
62990;SDS011;49084;48.204;16.202;2023-06-22T05:00:00;10.23;;;5.20;;
62990;SDS011;49084;48.204;16.202;2023-06-22T05:02:41;7.78;;;4.95;;
62990;SDS011;49084;48.204;16.202;2023-06-22T05:05:07;9.02;;;4.78;;
62990;SDS011;49084;48.204;16.202;2023-06-22T05:07:33;11.30;;;5.10;;
62990;SDS011;49084;48.204;16.202;2023-06-22T05:10:00;6.47;;;4.50;;
62990;SDS011;49084;48.204;16.202;2023-06-22T05:12:29;11.80;;;4.25;;
62990;SDS011;49084;48.204;16.202;2023-06-22T05:14:55;11.30;;;5.03;;
62990;SDS011;49084;48.204;16.202;2023-06-22T05:17:21;9.40;;;4.65;;
62990;SDS011;49084;48.204;16.202;2023-06-22T05:19:47;5.85;;;4.50;;
62990;SDS011;49084;48.204;16.202;2023-06-22T05:22:16;10.82;;;5.22;;
62990;SDS011;49084;48.204;16.202;2023-06-22T05:27:08;8.07;;;4.38;;
62990;SDS011;49084;48.204;16.202;2023-06-22T05:29:35;10.55;;;4.70;;
62990;SDS011;49084;48.204;16.202;2023-06-22T05:32:02;9.07;;;4.50;;
62990;SDS011;49084;48.204;16.202;2023-06-22T05:34:28;8.27;;;4.70;;
62990;SDS011;49084;48.204;16.202;2023-06-22T05:36:53;12.07;;;4.28;;
62990;SDS011;49084;48.204;16.202;2023-06-22T05:39:19;9.13;;;4.45;;
62990;SDS011;49084;48.204;16.202;2023-06-22T05:41:45;12.30;;;5.35;;
62990;SDS011;49084;48.204;16.202;2023-06-22T05:44:11;15.85;;;4.65;;
62990;SDS011;49084;48.204;16.202;2023-06-22T05:46:39;12.52;;;4.85;;
62990;SDS011;49084;48.204;16.202;2023-06-22T05:49:09;10.15;;;4.25;;
62990;SDS011;49084;48.204;16.202;2023-06-22T05:51:35;10.80;;;4.18;;
62990;SDS011;49084;48.204;16.202;2023-06-22T05:54:01;13.18;;;4.15;;
62990;SDS011;49084;48.204;16.202;2023-06-22T05:56:26;8.77;;;4.13;;
62990;SDS011;49084;48.204;16.202;2023-06-22T05:58:53;8.43;;;4.70;;
62990;SDS011;49084;48.204;16.202;2023-06-22T06:01:18;13.55;;;4.25;;
62990;SDS011;49084;48.204;16.202;2023-06-22T06:03:44;13.05;;;4.18;;
62990;SDS011;49084;48.204;16.202;2023-06-22T06:06:10;17.25;;;5.45;;
62990;SDS011;49084;48.204;16.202;2023-06-22T06:08:36;9.52;;;4.20;;
62990;SDS011;49084;48.204;16.202;2023-06-22T06:11:02;9.82;;;4.40;;
62990;SDS011;49084;48.204;16.202;2023-06-22T06:13:28;13.80;;;4.55;;
62990;SDS011;49084;48.204;16.202;2023-06-22T06:15:53;8.98;;;3.85;;
62990;SDS011;49084;48.204;16.202;2023-06-22T06:18:22;10.35;;;4.55;;
62990;SDS011;49084;48.204;16.202;2023-06-22T06:20:48;10.68;;;4.47;;
62990;SDS011;49084;48.204;16.202;2023-06-22T06:23:13;16.00;;;4.80;;
62990;SDS011;49084;48.204;16.202;2023-06-22T06:25:39;13.68;;;5.13;;
62990;SDS011;49084;48.204;16.202;2023-06-22T06:28:05;13.13;;;4.85;;
62990;SDS011;49084;48.204;16.202;2023-06-22T06:30:31;10.70;;;5.10;;
62990;SDS011;49084;48.204;16.202;2023-06-22T06:32:56;11.43;;;4.22;;
62990;SDS011;49084;48.204;16.202;2023-06-22T06:35:22;8.57;;;3.97;;
62990;SDS011;49084;48.204;16.202;2023-06-22T06:37:49;13.27;;;4.43;;
62990;SDS011;49084;48.204;16.202;2023-06-22T06:40:16;13.80;;;4.32;;
62990;SDS011;49084;48.204;16.202;2023-06-22T06:42:43;10.10;;;4.88;;
62990;SDS011;49084;48.204;16.202;2023-06-22T06:45:22;11.13;;;4.20;;
62990;SDS011;49084;48.204;16.202;2023-06-22T06:47:49;15.07;;;4.60;;
62990;SDS011;49084;48.204;16.202;2023-06-22T06:50:16;13.32;;;3.70;;
62990;SDS011;49084;48.204;16.202;2023-06-22T06:52:42;17.75;;;4.28;;
62990;SDS011;49084;48.204;16.202;2023-06-22T06:55:09;17.77;;;4.30;;
62990;SDS011;49084;48.204;16.202;2023-06-22T06:57:39;11.38;;;3.80;;
62990;SDS011;49084;48.204;16.202;2023-06-22T07:00:06;8.70;;;3.75;;
62990;SDS011;49084;48.204;16.202;2023-06-22T07:02:37;9.18;;;3.20;;
62990;SDS011;49084;48.204;16.202;2023-06-22T07:05:03;12.23;;;3.55;;
62990;SDS011;49084;48.204;16.202;2023-06-22T07:07:29;9.25;;;3.50;;
62990;SDS011;49084;48.204;16.202;2023-06-22T07:09:55;12.60;;;3.53;;
62990;SDS011;49084;48.204;16.202;2023-06-22T07:12:21;10.55;;;3.70;;
62990;SDS011;49084;48.204;16.202;2023-06-22T07:14:46;8.77;;;4.43;;
62990;SDS011;49084;48.204;16.202;2023-06-22T07:17:12;11.85;;;3.60;;
62990;SDS011;49084;48.204;16.202;2023-06-22T07:19:37;9.00;;;3.10;;
62990;SDS011;49084;48.204;16.202;2023-06-22T07:22:04;10.27;;;3.88;;
62990;SDS011;49084;48.204;16.202;2023-06-22T07:24:29;10.35;;;3.80;;
62990;SDS011;49084;48.204;16.202;2023-06-22T07:26:55;13.20;;;4.15;;
62990;SDS011;49084;48.204;16.202;2023-06-22T07:29:22;13.75;;;3.97;;
62990;SDS011;49084;48.204;16.202;2023-06-22T07:31:49;11.65;;;3.78;;
62990;SDS011;49084;48.204;16.202;2023-06-22T07:34:16;14.95;;;5.22;;
62990;SDS011;49084;48.204;16.202;2023-06-22T07:36:42;13.82;;;5.10;;
62990;SDS011;49084;48.204;16.202;2023-06-22T07:39:08;14.10;;;5.38;;
62990;SDS011;49084;48.204;16.202;2023-06-22T07:41:34;19.05;;;6.40;;
62990;SDS011;49084;48.204;16.202;2023-06-22T07:43:59;11.60;;;5.78;;
62990;SDS011;49084;48.204;16.202;2023-06-22T07:46:25;14.90;;;6.18;;
62990;SDS011;49084;48.204;16.202;2023-06-22T07:48:50;16.58;;;7.10;;
62990;SDS011;49084;48.204;16.202;2023-06-22T07:51:16;18.75;;;8.32;;
62990;SDS011;49084;48.204;16.202;2023-06-22T07:53:42;20.30;;;8.85;;
62990;SDS011;49084;48.204;16.202;2023-06-22T07:56:11;16.95;;;8.20;;
62990;SDS011;49084;48.204;16.202;2023-06-22T07:58:37;15.05;;;8.27;;
62990;SDS011;49084;48.204;16.202;2023-06-22T08:01:03;15.52;;;7.97;;
62990;SDS011;49084;48.204;16.202;2023-06-22T08:03:29;17.50;;;9.10;;
62990;SDS011;49084;48.204;16.202;2023-06-22T08:05:55;17.83;;;8.60;;
62990;SDS011;49084;48.204;16.202;2023-06-22T08:08:21;15.68;;;7.95;;
62990;SDS011;49084;48.204;16.202;2023-06-22T08:10:46;20.92;;;8.25;;
62990;SDS011;49084;48.204;16.202;2023-06-22T08:13:12;16.00;;;7.97;;
62990;SDS011;49084;48.204;16.202;2023-06-22T08:15:38;13.38;;;8.00;;
62990;SDS011;49084;48.204;16.202;2023-06-22T08:18:03;15.43;;;8.32;;
62990;SDS011;49084;48.204;16.202;2023-06-22T08:20:30;16.58;;;6.93;;
62990;SDS011;49084;48.204;16.202;2023-06-22T08:22:56;12.02;;;6.03;;
62990;SDS011;49084;48.204;16.202;2023-06-22T08:25:23;11.20;;;5.88;;
62990;SDS011;49084;48.204;16.202;2023-06-22T08:27:49;12.40;;;7.25;;
62990;SDS011;49084;48.204;16.202;2023-06-22T08:30:15;13.30;;;5.85;;
62990;SDS011;49084;48.204;16.202;2023-06-22T08:32:42;13.88;;;7.03;;
62990;SDS011;49084;48.204;16.202;2023-06-22T08:35:07;13.18;;;7.70;;
62990;SDS011;49084;48.204;16.202;2023-06-22T08:37:34;15.77;;;6.82;;
62990;SDS011;49084;48.204;16.202;2023-06-22T08:40:00;14.77;;;6.88;;
62990;SDS011;49084;48.204;16.202;2023-06-22T08:42:30;13.85;;;6.55;;
62990;SDS011;49084;48.204;16.202;2023-06-22T08:44:56;16.13;;;7.45;;
62990;SDS011;49084;48.204;16.202;2023-06-22T08:47:22;13.18;;;8.00;;
62990;SDS011;49084;48.204;16.202;2023-06-22T08:49:48;13.98;;;8.35;;
62990;SDS011;49084;48.204;16.202;2023-06-22T08:52:14;13.80;;;7.90;;
62990;SDS011;49084;48.204;16.202;2023-06-22T08:54:40;11.00;;;6.32;;
62990;SDS011;49084;48.204;16.202;2023-06-22T08:57:05;11.35;;;6.45;;
62990;SDS011;49084;48.204;16.202;2023-06-22T08:59:31;13.07;;;7.25;;
62990;SDS011;49084;48.204;16.202;2023-06-22T09:01:57;9.77;;;6.80;;
62990;SDS011;49084;48.204;16.202;2023-06-22T09:04:23;9.48;;;6.72;;
62990;SDS011;49084;48.204;16.202;2023-06-22T09:06:49;12.30;;;6.75;;
62990;SDS011;49084;48.204;16.202;2023-06-22T09:09:17;12.65;;;6.07;;
62990;SDS011;49084;48.204;16.202;2023-06-22T09:11:43;10.73;;;6.55;;
62990;SDS011;49084;48.204;16.202;2023-06-22T09:14:10;15.00;;;7.43;;
62990;SDS011;49084;48.204;16.202;2023-06-22T09:16:36;13.35;;;7.40;;
62990;SDS011;49084;48.204;16.202;2023-06-22T09:19:01;11.23;;;6.53;;
62990;SDS011;49084;48.204;16.202;2023-06-22T09:21:27;14.93;;;7.32;;
62990;SDS011;49084;48.204;16.202;2023-06-22T09:23:54;8.02;;;6.03;;
62990;SDS011;49084;48.204;16.202;2023-06-22T09:26:20;12.80;;;6.88;;
62990;SDS011;49084;48.204;16.202;2023-06-22T09:28:46;8.52;;;6.97;;
62990;SDS011;49084;48.204;16.202;2023-06-22T09:31:12;9.80;;;6.60;;
62990;SDS011;49084;48.204;16.202;2023-06-22T09:33:39;11.18;;;6.38;;
62990;SDS011;49084;48.204;16.202;2023-06-22T09:36:05;12.07;;;6.47;;
62990;SDS011;49084;48.204;16.202;2023-06-22T09:38:35;11.60;;;6.60;;
62990;SDS011;49084;48.204;16.202;2023-06-22T09:41:03;10.15;;;6.20;;
62990;SDS011;49084;48.204;16.202;2023-06-22T09:43:31;13.20;;;6.63;;
62990;SDS011;49084;48.204;16.202;2023-06-22T09:45:57;11.18;;;6.93;;
62990;SDS011;49084;48.204;16.202;2023-06-22T09:48:22;10.80;;;6.90;;
62990;SDS011;49084;48.204;16.202;2023-06-22T09:50:48;10.23;;;6.50;;
62990;SDS011;49084;48.204;16.202;2023-06-22T09:53:14;10.18;;;6.18;;
62990;SDS011;49084;48.204;16.202;2023-06-22T09:55:39;10.13;;;6.30;;
62990;SDS011;49084;48.204;16.202;2023-06-22T09:58:05;10.05;;;6.28;;
62990;SDS011;49084;48.204;16.202;2023-06-22T10:00:31;8.88;;;6.55;;
62990;SDS011;49084;48.204;16.202;2023-06-22T10:02:56;9.98;;;5.82;;
62990;SDS011;49084;48.204;16.202;2023-06-22T10:05:22;9.65;;;6.30;;
62990;SDS011;49084;48.204;16.202;2023-06-22T10:07:48;14.25;;;6.20;;
62990;SDS011;49084;48.204;16.202;2023-06-22T10:10:14;10.18;;;5.85;;
62990;SDS011;49084;48.204;16.202;2023-06-22T10:12:45;7.22;;;5.80;;
62990;SDS011;49084;48.204;16.202;2023-06-22T10:15:11;11.90;;;6.20;;
62990;SDS011;49084;48.204;16.202;2023-06-22T10:17:38;8.43;;;5.85;;
62990;SDS011;49084;48.204;16.202;2023-06-22T10:20:04;9.07;;;5.10;;
62990;SDS011;49084;48.204;16.202;2023-06-22T10:22:40;13.38;;;6.18;;
62990;SDS011;49084;48.204;16.202;2023-06-22T10:25:07;10.30;;;5.57;;
62990;SDS011;49084;48.204;16.202;2023-06-22T10:27:33;9.48;;;6.00;;
62990;SDS011;49084;48.204;16.202;2023-06-22T10:29:59;7.63;;;5.38;;
62990;SDS011;49084;48.204;16.202;2023-06-22T10:32:25;8.80;;;5.50;;
62990;SDS011;49084;48.204;16.202;2023-06-22T10:34:50;9.57;;;5.57;;
62990;SDS011;49084;48.204;16.202;2023-06-22T10:37:16;8.32;;;5.20;;
62990;SDS011;49084;48.204;16.202;2023-06-22T10:39:42;8.07;;;5.40;;
62990;SDS011;49084;48.204;16.202;2023-06-22T10:42:07;6.95;;;4.88;;
62990;SDS011;49084;48.204;16.202;2023-06-22T10:44:33;13.10;;;5.53;;
62990;SDS011;49084;48.204;16.202;2023-06-22T10:46:59;8.20;;;5.25;;
62990;SDS011;49084;48.204;16.202;2023-06-22T10:49:24;6.78;;;4.80;;
62990;SDS011;49084;48.204;16.202;2023-06-22T10:51:50;8.68;;;4.82;;
62990;SDS011;49084;48.204;16.202;2023-06-22T10:54:15;5.80;;;4.43;;
62990;SDS011;49084;48.204;16.202;2023-06-22T10:56:43;8.77;;;4.20;;
62990;SDS011;49084;48.204;16.202;2023-06-22T10:59:09;9.65;;;4.68;;
62990;SDS011;49084;48.204;16.202;2023-06-22T11:01:34;7.07;;;4.78;;
62990;SDS011;49084;48.204;16.202;2023-06-22T11:04:00;7.50;;;4.22;;
62990;SDS011;49084;48.204;16.202;2023-06-22T11:06:26;9.25;;;3.97;;
62990;SDS011;49084;48.204;16.202;2023-06-22T11:08:51;5.53;;;3.20;;
62990;SDS011;49084;48.204;16.202;2023-06-22T11:11:17;7.72;;;3.78;;
62990;SDS011;49084;48.204;16.202;2023-06-22T11:13:43;6.40;;;3.63;;
62990;SDS011;49084;48.204;16.202;2023-06-22T11:16:09;10.23;;;3.40;;
62990;SDS011;49084;48.204;16.202;2023-06-22T11:18:35;6.40;;;3.60;;
62990;SDS011;49084;48.204;16.202;2023-06-22T11:21:01;8.75;;;3.33;;
62990;SDS011;49084;48.204;16.202;2023-06-22T11:23:27;4.85;;;2.90;;
62990;SDS011;49084;48.204;16.202;2023-06-22T11:25:53;8.32;;;3.30;;
62990;SDS011;49084;48.204;16.202;2023-06-22T11:28:19;6.57;;;3.25;;
62990;SDS011;49084;48.204;16.202;2023-06-22T11:30:45;4.82;;;3.22;;
62990;SDS011;49084;48.204;16.202;2023-06-22T11:33:11;5.53;;;3.20;;
62990;SDS011;49084;48.204;16.202;2023-06-22T11:35:36;5.82;;;3.70;;
62990;SDS011;49084;48.204;16.202;2023-06-22T11:38:02;5.63;;;3.33;;
62990;SDS011;49084;48.204;16.202;2023-06-22T11:40:29;9.25;;;3.45;;
62990;SDS011;49084;48.204;16.202;2023-06-22T11:42:55;6.43;;;3.70;;
62990;SDS011;49084;48.204;16.202;2023-06-22T11:45:21;9.50;;;3.53;;
62990;SDS011;49084;48.204;16.202;2023-06-22T11:47:47;8.27;;;3.38;;
62990;SDS011;49084;48.204;16.202;2023-06-22T11:50:13;6.60;;;3.15;;
62990;SDS011;49084;48.204;16.202;2023-06-22T11:52:38;8.27;;;3.40;;
62990;SDS011;49084;48.204;16.202;2023-06-22T11:55:05;7.93;;;3.40;;
62990;SDS011;49084;48.204;16.202;2023-06-22T11:57:38;8.45;;;3.25;;
62990;SDS011;49084;48.204;16.202;2023-06-22T12:00:16;7.10;;;3.75;;
62990;SDS011;49084;48.204;16.202;2023-06-22T12:02:43;5.95;;;3.85;;
62990;SDS011;49084;48.204;16.202;2023-06-22T12:05:10;8.05;;;3.30;;
62990;SDS011;49084;48.204;16.202;2023-06-22T12:07:36;6.18;;;3.22;;
62990;SDS011;49084;48.204;16.202;2023-06-22T12:10:02;9.10;;;3.90;;
62990;SDS011;49084;48.204;16.202;2023-06-22T12:12:28;6.65;;;3.05;;
62990;SDS011;49084;48.204;16.202;2023-06-22T12:14:54;7.28;;;3.67;;
62990;SDS011;49084;48.204;16.202;2023-06-22T12:17:20;5.07;;;3.47;;
62990;SDS011;49084;48.204;16.202;2023-06-22T12:19:45;6.70;;;3.33;;
62990;SDS011;49084;48.204;16.202;2023-06-22T12:22:11;8.93;;;3.67;;
62990;SDS011;49084;48.204;16.202;2023-06-22T12:24:37;6.38;;;3.25;;
62990;SDS011;49084;48.204;16.202;2023-06-22T12:27:03;6.50;;;3.17;;
62990;SDS011;49084;48.204;16.202;2023-06-22T12:29:29;8.98;;;3.42;;
62990;SDS011;49084;48.204;16.202;2023-06-22T12:31:54;8.98;;;3.33;;
62990;SDS011;49084;48.204;16.202;2023-06-22T12:34:20;10.20;;;4.13;;
62990;SDS011;49084;48.204;16.202;2023-06-22T12:36:46;6.55;;;3.70;;
62990;SDS011;49084;48.204;16.202;2023-06-22T12:39:13;9.00;;;4.15;;
62990;SDS011;49084;48.204;16.202;2023-06-22T12:41:39;6.20;;;3.08;;
62990;SDS011;49084;48.204;16.202;2023-06-22T12:44:05;6.55;;;3.67;;
62990;SDS011;49084;48.204;16.202;2023-06-22T12:46:30;9.48;;;3.97;;
62990;SDS011;49084;48.204;16.202;2023-06-22T12:49:02;5.70;;;3.70;;
62990;SDS011;49084;48.204;16.202;2023-06-22T12:51:29;9.40;;;3.83;;
62990;SDS011;49084;48.204;16.202;2023-06-22T12:53:55;4.50;;;3.17;;
62990;SDS011;49084;48.204;16.202;2023-06-22T12:56:21;7.13;;;3.70;;
62990;SDS011;49084;48.204;16.202;2023-06-22T12:58:46;8.35;;;3.83;;
62990;SDS011;49084;48.204;16.202;2023-06-22T13:01:12;9.60;;;3.90;;
62990;SDS011;49084;48.204;16.202;2023-06-22T13:03:38;8.48;;;3.80;;
62990;SDS011;49084;48.204;16.202;2023-06-22T13:06:04;9.45;;;3.63;;
62990;SDS011;49084;48.204;16.202;2023-06-22T13:08:30;5.03;;;3.40;;
62990;SDS011;49084;48.204;16.202;2023-06-22T13:10:55;7.78;;;3.90;;
62990;SDS011;49084;48.204;16.202;2023-06-22T13:13:25;7.85;;;4.20;;
62990;SDS011;49084;48.204;16.202;2023-06-22T13:15:52;9.32;;;4.22;;
62990;SDS011;49084;48.204;16.202;2023-06-22T13:18:18;7.72;;;3.72;;
62990;SDS011;49084;48.204;16.202;2023-06-22T13:20:44;9.50;;;4.07;;
62990;SDS011;49084;48.204;16.202;2023-06-22T13:23:10;9.50;;;4.60;;
62990;SDS011;49084;48.204;16.202;2023-06-22T13:25:36;8.73;;;4.00;;
62990;SDS011;49084;48.204;16.202;2023-06-22T13:28:02;11.52;;;4.10;;
62990;SDS011;49084;48.204;16.202;2023-06-22T13:30:28;8.60;;;4.15;;
62990;SDS011;49084;48.204;16.202;2023-06-22T13:32:54;11.55;;;4.60;;
62990;SDS011;49084;48.204;16.202;2023-06-22T13:35:20;5.32;;;3.50;;
62990;SDS011;49084;48.204;16.202;2023-06-22T13:37:46;5.43;;;3.75;;
62990;SDS011;49084;48.204;16.202;2023-06-22T13:40:11;7.82;;;4.03;;
62990;SDS011;49084;48.204;16.202;2023-06-22T13:42:37;9.10;;;4.47;;
62990;SDS011;49084;48.204;16.202;2023-06-22T13:45:03;10.48;;;4.13;;
62990;SDS011;49084;48.204;16.202;2023-06-22T13:47:30;9.43;;;4.30;;
62990;SDS011;49084;48.204;16.202;2023-06-22T13:49:55;5.30;;;3.70;;
62990;SDS011;49084;48.204;16.202;2023-06-22T13:52:22;7.05;;;4.18;;
62990;SDS011;49084;48.204;16.202;2023-06-22T13:54:48;11.20;;;4.30;;
62990;SDS011;49084;48.204;16.202;2023-06-22T13:57:14;9.88;;;4.72;;
62990;SDS011;49084;48.204;16.202;2023-06-22T13:59:39;6.63;;;3.65;;
62990;SDS011;49084;48.204;16.202;2023-06-22T14:02:05;7.93;;;3.85;;
62990;SDS011;49084;48.204;16.202;2023-06-22T14:04:31;8.73;;;4.55;;
62990;SDS011;49084;48.204;16.202;2023-06-22T14:06:57;7.63;;;4.22;;
62990;SDS011;49084;48.204;16.202;2023-06-22T14:09:23;9.13;;;4.45;;
62990;SDS011;49084;48.204;16.202;2023-06-22T14:11:48;7.18;;;4.10;;
62990;SDS011;49084;48.204;16.202;2023-06-22T14:14:14;12.30;;;4.07;;
62990;SDS011;49084;48.204;16.202;2023-06-22T14:16:40;7.13;;;4.10;;
62990;SDS011;49084;48.204;16.202;2023-06-22T14:19:05;8.95;;;4.15;;
62990;SDS011;49084;48.204;16.202;2023-06-22T14:21:31;7.60;;;4.47;;
62990;SDS011;49084;48.204;16.202;2023-06-22T14:23:56;12.77;;;4.68;;
62990;SDS011;49084;48.204;16.202;2023-06-22T14:26:22;8.85;;;4.50;;
62990;SDS011;49084;48.204;16.202;2023-06-22T14:28:48;6.00;;;3.78;;
62990;SDS011;49084;48.204;16.202;2023-06-22T14:31:15;9.70;;;5.00;;
62990;SDS011;49084;48.204;16.202;2023-06-22T14:33:46;7.07;;;4.38;;
62990;SDS011;49084;48.204;16.202;2023-06-22T14:36:13;7.95;;;4.10;;
62990;SDS011;49084;48.204;16.202;2023-06-22T14:38:38;9.02;;;4.43;;